sensor_id;sensor_type;location;lat;lon;timestamp;P1;P2;P0
74434;PMS7003;62867;52.038;29.256;2022-10-31T00:03:51;5;3;1.4
74434;PMS7003;62867;52.038;29.256;2022-10-31T00:08:57;3.4;2.8;1.6
74434;PMS7003;62867;52.038;29.256;2022-10-31T00:14:03;1.8;1.2;0.6
74434;PMS7003;62867;52.038;29.256;2022-10-31T00:19:03;3.5;2;0.8
74434;PMS7003;62867;52.038;29.256;2022-10-31T00:24:13;3;1.4;0
74434;PMS7003;62867;52.038;29.256;2022-10-31T00:28:51;1.6;1.2;0.4
74434;PMS7003;62867;52.038;29.256;2022-10-31T00:33:51;3.6;2.2;0.8
74434;PMS7003;62867;52.038;29.256;2022-10-31T00:39:01;1.6;0.8;0
74434;PMS7003;62867;52.038;29.256;2022-10-31T00:44:03;1.4;1.2;0.6
74434;PMS7003;62867;52.038;29.256;2022-10-31T00:48:51;0.6;0.6;0.2
74434;PMS7003;62867;52.038;29.256;2022-10-31T00:53:51;1.6;0.2;0
74434;PMS7003;62867;52.038;29.256;2022-10-31T00:59:35;0.2;0.2;0
74434;PMS7003;62867;52.038;29.256;2022-10-31T01:03:51;0.4;0.2;0
74434;PMS7003;62867;52.038;29.256;2022-10-31T01:09:03;1.4;0.2;0
74434;PMS7003;62867;52.038;29.256;2022-10-31T01:14:11;0.8;0.2;0
74434;PMS7003;62867;52.038;29.256;2022-10-31T01:18:51;1.5;0.5;0
74434;PMS7003;62867;52.038;29.256;2022-10-31T01:23:57;1.2;0.4;0
74434;PMS7003;62867;52.038;29.256;2022-10-31T01:28:53;1.4;0.8;0
74434;PMS7003;62867;52.038;29.256;2022-10-31T01:34:29;0.8;0.4;0
74434;PMS7003;62867;52.038;29.256;2022-10-31T01:39:15;2;1;0
74434;PMS7003;62867;52.038;29.256;2022-10-31T01:44:47;2.2;1.4;0.6
74434;PMS7003;62867;52.038;29.256;2022-10-31T01:49:11;3.4;1.6;0.6
74434;PMS7003;62867;52.038;29.256;2022-10-31T01:53:55;2;1.4;0.4
74434;PMS7003;62867;52.038;29.256;2022-10-31T01:58:55;3.4;1.2;0.6
74434;PMS7003;62867;52.038;29.256;2022-10-31T02:03:55;3;1.8;0.2
74434;PMS7003;62867;52.038;29.256;2022-10-31T02:09:11;1;0.6;0
74434;PMS7003;62867;52.038;29.256;2022-10-31T02:14:01;1.6;1.4;0
74434;PMS7003;62867;52.038;29.256;2022-10-31T02:18:55;1.8;0.8;0
74434;PMS7003;62867;52.038;29.256;2022-10-31T02:24:00;2.8;1.5;0.8
74434;PMS7003;62867;52.038;29.256;2022-10-31T02:29:13;2.2;1.8;0.6
74434;PMS7003;62867;52.038;29.256;2022-10-31T02:34:05;6.6;4.8;2
74434;PMS7003;62867;52.038;29.256;2022-10-31T02:39:02;5;2.6;1.4
74434;PMS7003;62867;52.038;29.256;2022-10-31T02:43:57;5.4;3.6;1.6
74434;PMS7003;62867;52.038;29.256;2022-10-31T02:48:55;5.8;3.6;1.8
74434;PMS7003;62867;52.038;29.256;2022-10-31T02:54:18;3.8;2.6;1.4
74434;PMS7003;62867;52.038;29.256;2022-10-31T02:58:55;3.4;2;1
74434;PMS7003;62867;52.038;29.256;2022-10-31T03:04:02;4;2.4;0.8
74434;PMS7003;62867;52.038;29.256;2022-10-31T03:09:19;4;3.2;1.4
74434;PMS7003;62867;52.038;29.256;2022-10-31T03:13:56;5;3.4;1.6
74434;PMS7003;62867;52.038;29.256;2022-10-31T03:18:55;3.6;2.8;1.8
74434;PMS7003;62867;52.038;29.256;2022-10-31T03:24:11;3.8;2.5;1.3
74434;PMS7003;62867;52.038;29.256;2022-10-31T03:29:01;2.2;1.4;0.2
74434;PMS7003;62867;52.038;29.256;2022-10-31T03:34:01;1.4;0.8;0.2
74434;PMS7003;62867;52.038;29.256;2022-10-31T03:38:55;1.8;1;0.2
74434;PMS7003;62867;52.038;29.256;2022-10-31T03:43:55;2;1.4;0.2
74434;PMS7003;62867;52.038;29.256;2022-10-31T03:48:55;4.2;2.2;1
74434;PMS7003;62867;52.038;29.256;2022-10-31T03:53:56;4;2.6;1.6
74434;PMS7003;62867;52.038;29.256;2022-10-31T03:59:17;3;2;1
74434;PMS7003;62867;52.038;29.256;2022-10-31T04:03:55;2.6;2;0.8
74434;PMS7003;62867;52.038;29.256;2022-10-31T04:09:07;2.8;1.8;1.2
74434;PMS7003;62867;52.038;29.256;2022-10-31T04:14:03;3;2.2;1
74434;PMS7003;62867;52.038;29.256;2022-10-31T04:18:55;4.2;2.2;0.8
74434;PMS7003;62867;52.038;29.256;2022-10-31T04:24:19;2.8;1.8;1
74434;PMS7003;62867;52.038;29.256;2022-10-31T04:28:55;1.8;1.2;0.6
74434;PMS7003;62867;52.038;29.256;2022-10-31T04:34:07;2.6;1.6;1.2
74434;PMS7003;62867;52.038;29.256;2022-10-31T04:39:11;5.6;3.8;1.4
74434;PMS7003;62867;52.038;29.256;2022-10-31T04:44:15;3.8;2.8;1.4
74434;PMS7003;62867;52.038;29.256;2022-10-31T04:49:15;4.6;2.4;1.2
74434;PMS7003;62867;52.038;29.256;2022-10-31T04:54:07;3.8;2.6;0.8
74434;PMS7003;62867;52.038;29.256;2022-10-31T04:59:13;2.2;1.8;1
74434;PMS7003;62867;52.038;29.256;2022-10-31T05:03:55;1.8;1.4;0.8
74434;PMS7003;62867;52.038;29.256;2022-10-31T05:08:55;2.2;1.2;0.6
74434;PMS7003;62867;52.038;29.256;2022-10-31T05:13:55;3.2;2;0.8
74434;PMS7003;62867;52.038;29.256;2022-10-31T05:18:55;3.4;2.8;1.4
74434;PMS7003;62867;52.038;29.256;2022-10-31T05:24:07;2.3;2.3;1.3
74434;PMS7003;62867;52.038;29.256;2022-10-31T05:29:03;2.4;1.8;1
74434;PMS7003;62867;52.038;29.256;2022-10-31T05:34:29;2.4;1.4;1
74434;PMS7003;62867;52.038;29.256;2022-10-31T05:38:55;2;1.8;1
74434;PMS7003;62867;52.038;29.256;2022-10-31T05:43:55;3.4;2.4;1.2
74434;PMS7003;62867;52.038;29.256;2022-10-31T05:49:07;3.2;2.8;1.2
74434;PMS7003;62867;52.038;29.256;2022-10-31T05:54:13;5.4;2.4;1.2
74434;PMS7003;62867;52.038;29.256;2022-10-31T05:58:55;5.2;3.6;1.6
74434;PMS7003;62867;52.038;29.256;2022-10-31T06:04:07;7;4.2;1.2
74434;PMS7003;62867;52.038;29.256;2022-10-31T06:08:55;4.2;2.8;1.4
74434;PMS7003;62867;52.038;29.256;2022-10-31T06:14:07;3.4;2.6;1.2
74434;PMS7003;62867;52.038;29.256;2022-10-31T06:18:55;3.2;2.2;1.2
74434;PMS7003;62867;52.038;29.256;2022-10-31T06:24:03;2.5;1.8;0.8
74434;PMS7003;62867;52.038;29.256;2022-10-31T06:28:55;2.8;2.6;1.2
74434;PMS7003;62867;52.038;29.256;2022-10-31T06:34:07;2.8;2;1
74434;PMS7003;62867;52.038;29.256;2022-10-31T06:38:55;2.8;2.4;1
74434;PMS7003;62867;52.038;29.256;2022-10-31T06:44:15;2.8;2.4;1
74434;PMS7003;62867;52.038;29.256;2022-10-31T06:49:03;2.6;2.2;1
74434;PMS7003;62867;52.038;29.256;2022-10-31T06:54:07;3;1.6;0.6
74434;PMS7003;62867;52.038;29.256;2022-10-31T06:58:55;2.2;1.8;1
74434;PMS7003;62867;52.038;29.256;2022-10-31T07:03:55;3;2.2;1.2
74434;PMS7003;62867;52.038;29.256;2022-10-31T07:09:13;4.2;3.2;1.8
74434;PMS7003;62867;52.038;29.256;2022-10-31T07:13:55;6.8;3.4;1.6
74434;PMS7003;62867;52.038;29.256;2022-10-31T07:18:55;6;3.8;1.8
74434;PMS7003;62867;52.038;29.256;2022-10-31T07:24:17;3.2;2.2;1
74434;PMS7003;62867;52.038;29.256;2022-10-31T07:29:07;2.3;1.8;0.8
74434;PMS7003;62867;52.038;29.256;2022-10-31T07:33:55;2.4;2.4;1
74434;PMS7003;62867;52.038;29.256;2022-10-31T07:39:03;5;2.8;1.6
74434;PMS7003;62867;52.038;29.256;2022-10-31T07:44:07;3.6;2.4;1.2
74434;PMS7003;62867;52.038;29.256;2022-10-31T07:48:55;3.8;2.8;1.2
74434;PMS7003;62867;52.038;29.256;2022-10-31T07:53:55;3.2;2.4;1.4
74434;PMS7003;62867;52.038;29.256;2022-10-31T07:59:15;3.4;2.4;1.2
74434;PMS7003;62867;52.038;29.256;2022-10-31T08:03:55;5.4;4.4;2.4
74434;PMS7003;62867;52.038;29.256;2022-10-31T08:08:55;4.4;2.6;1.6
74434;PMS7003;62867;52.038;29.256;2022-10-31T08:14:07;5;3.2;1.8
74434;PMS7003;62867;52.038;29.256;2022-10-31T08:19:19;6.6;5.2;2.2
74434;PMS7003;62867;52.038;29.256;2022-10-31T08:23:55;4.2;3.4;2
74434;PMS7003;62867;52.038;29.256;2022-10-31T08:28:55;4.5;3;1.5
74434;PMS7003;62867;52.038;29.256;2022-10-31T08:33:55;4.6;3.6;1.6
74434;PMS7003;62867;52.038;29.256;2022-10-31T08:39:07;2.6;2;1
74434;PMS7003;62867;52.038;29.256;2022-10-31T08:43:55;2.6;1.6;0.6
74434;PMS7003;62867;52.038;29.256;2022-10-31T08:49:05;3.4;2.6;1.2
74434;PMS7003;62867;52.038;29.256;2022-10-31T08:54:13;4.2;3.8;1.6
74434;PMS7003;62867;52.038;29.256;2022-10-31T08:58:55;4.2;2.4;1.2
74434;PMS7003;62867;52.038;29.256;2022-10-31T09:03:55;4.4;2.4;1.2
74434;PMS7003;62867;52.038;29.256;2022-10-31T09:08:55;1.8;1.6;0.6
74434;PMS7003;62867;52.038;29.256;2022-10-31T09:13:55;2.4;1.8;0.6
74434;PMS7003;62867;52.038;29.256;2022-10-31T09:18:55;4;2.4;1.6
74434;PMS7003;62867;52.038;29.256;2022-10-31T09:23:55;4.2;2.8;1.4
74434;PMS7003;62867;52.038;29.256;2022-10-31T09:28:55;3;2;1
74434;PMS7003;62867;52.038;29.256;2022-10-31T09:33:55;4.6;3;1.4
74434;PMS7003;62867;52.038;29.256;2022-10-31T09:38:55;2.6;2;1
74434;PMS7003;62867;52.038;29.256;2022-10-31T09:43:57;3;3;1
74434;PMS7003;62867;52.038;29.256;2022-10-31T09:49:16;4;2.6;1.4
74434;PMS7003;62867;52.038;29.256;2022-10-31T09:53:56;3.4;1.8;0.6
74434;PMS7003;62867;52.038;29.256;2022-10-31T09:58:56;2.4;2.2;0.8
74434;PMS7003;62867;52.038;29.256;2022-10-31T10:04:21;2.4;1.6;0.8
74434;PMS7003;62867;52.038;29.256;2022-10-31T10:08:55;2.2;1.6;0.4
74434;PMS7003;62867;52.038;29.256;2022-10-31T10:13:57;2.6;1.4;0.8
74434;PMS7003;62867;52.038;29.256;2022-10-31T10:18:58;2;1.2;0.4
74434;PMS7003;62867;52.038;29.256;2022-10-31T10:24:11;1.8;1.4;0.4
74434;PMS7003;62867;52.038;29.256;2022-10-31T10:28:56;0.3;0.3;0
74434;PMS7003;62867;52.038;29.256;2022-10-31T10:34:18;12.4;9.2;3.6
74434;PMS7003;62867;52.038;29.256;2022-10-31T10:38:56;50.6;37.6;20.4
74434;PMS7003;62867;52.038;29.256;2022-10-31T10:43:55;33.2;24.6;13.2
74434;PMS7003;62867;52.038;29.256;2022-10-31T10:48:55;5;3.8;2
74434;PMS7003;62867;52.038;29.256;2022-10-31T10:54:00;2.2;1.8;0.8
74434;PMS7003;62867;52.038;29.256;2022-10-31T10:58:55;3.4;2.6;1.2
74434;PMS7003;62867;52.038;29.256;2022-10-31T11:04:13;4.4;2.8;1.6
74434;PMS7003;62867;52.038;29.256;2022-10-31T11:09:15;7.2;5.4;2.4
74434;PMS7003;62867;52.038;29.256;2022-10-31T11:13:57;3.4;2.6;1.4
74434;PMS7003;62867;52.038;29.256;2022-10-31T11:19:06;7.6;5;2.8
74434;PMS7003;62867;52.038;29.256;2022-10-31T11:24:01;4.2;3.6;2
74434;PMS7003;62867;52.038;29.256;2022-10-31T11:29:11;5.8;3.8;2.5
74434;PMS7003;62867;52.038;29.256;2022-10-31T11:34:13;2.4;1.6;0.6
74434;PMS7003;62867;52.038;29.256;2022-10-31T11:38:55;2.6;1.4;0.6
74434;PMS7003;62867;52.038;29.256;2022-10-31T11:43:56;7;5;2.6
74434;PMS7003;62867;52.038;29.256;2022-10-31T11:49:03;6.6;5.6;2.8
74434;PMS7003;62867;52.038;29.256;2022-10-31T11:54:15;8;6.2;3.4
74434;PMS7003;62867;52.038;29.256;2022-10-31T11:59:14;8.2;4.4;2.8
74434;PMS7003;62867;52.038;29.256;2022-10-31T12:03:58;10.4;7.2;3.4
74434;PMS7003;62867;52.038;29.256;2022-10-31T12:08:55;10.4;6.2;3.4
74434;PMS7003;62867;52.038;29.256;2022-10-31T12:13:58;6.6;5.8;3.2
74434;PMS7003;62867;52.038;29.256;2022-10-31T12:19:20;7.2;5;2.6
74434;PMS7003;62867;52.038;29.256;2022-10-31T12:23:59;9.3;5;2.3
74434;PMS7003;62867;52.038;29.256;2022-10-31T12:29:11;5.2;4.2;2
74434;PMS7003;62867;52.038;29.256;2022-10-31T12:34:25;8.5;5.5;2.5
74434;PMS7003;62867;52.038;29.256;2022-10-31T12:39:07;11.6;9.2;4.2
74434;PMS7003;62867;52.038;29.256;2022-10-31T12:44:16;11.2;8.4;3.8
74434;PMS7003;62867;52.038;29.256;2022-10-31T12:49:08;12;8;4.4
74434;PMS7003;62867;52.038;29.256;2022-10-31T12:53:59;11.4;8.2;5
74434;PMS7003;62867;52.038;29.256;2022-10-31T12:59:04;9.8;7;4
74434;PMS7003;62867;52.038;29.256;2022-10-31T13:03:55;10.6;6.2;3.8
74434;PMS7003;62867;52.038;29.256;2022-10-31T13:09:05;8.2;5.8;3.4
74434;PMS7003;62867;52.038;29.256;2022-10-31T13:13:57;7.8;6.4;3
74434;PMS7003;62867;52.038;29.256;2022-10-31T13:18:56;10.2;6.8;3.6
74434;PMS7003;62867;52.038;29.256;2022-10-31T13:24:04;10;7.4;3.8
74434;PMS7003;62867;52.038;29.256;2022-10-31T13:29:05;8.6;6.8;3.8
74434;PMS7003;62867;52.038;29.256;2022-10-31T13:33:56;11.5;7.3;4
74434;PMS7003;62867;52.038;29.256;2022-10-31T13:39:18;15.2;11.8;6.4
74434;PMS7003;62867;52.038;29.256;2022-10-31T13:44:10;21.6;16.4;7.8
74434;PMS7003;62867;52.038;29.256;2022-10-31T13:49:35;12.2;9.6;5
74434;PMS7003;62867;52.038;29.256;2022-10-31T13:54:06;10.2;6.8;4.2
74434;PMS7003;62867;52.038;29.256;2022-10-31T13:59:17;15.2;10.4;5.6
74434;PMS7003;62867;52.038;29.256;2022-10-31T14:03:56;14.6;10.8;6.4
74434;PMS7003;62867;52.038;29.256;2022-10-31T14:08:55;23.6;16.4;7.4
74434;PMS7003;62867;52.038;29.256;2022-10-31T14:14:08;30.8;21.8;12.2
74434;PMS7003;62867;52.038;29.256;2022-10-31T14:19:04;26.4;19.4;9.8
74434;PMS7003;62867;52.038;29.256;2022-10-31T14:24:12;26.6;20;11.2
74434;PMS7003;62867;52.038;29.256;2022-10-31T14:28:56;26.4;20.2;9.8
74434;PMS7003;62867;52.038;29.256;2022-10-31T14:34:06;30.5;22.8;12.5
74434;PMS7003;62867;52.038;29.256;2022-10-31T14:39:04;33.8;25.8;12.6
74434;PMS7003;62867;52.038;29.256;2022-10-31T14:44:02;41.8;31.6;15.6
74434;PMS7003;62867;52.038;29.256;2022-10-31T14:49:08;45.4;33;17.4
74434;PMS7003;62867;52.038;29.256;2022-10-31T14:53:55;46.6;34.6;19.2
74434;PMS7003;62867;52.038;29.256;2022-10-31T14:58:56;39.4;29.4;15.4
74434;PMS7003;62867;52.038;29.256;2022-10-31T15:04:04;34.6;25;13.4
74434;PMS7003;62867;52.038;29.256;2022-10-31T15:09:03;36;27.8;14.8
74434;PMS7003;62867;52.038;29.256;2022-10-31T15:13:55;37.8;25.2;14.4
74434;PMS7003;62867;52.038;29.256;2022-10-31T15:19:08;28.2;21.2;12
74434;PMS7003;62867;52.038;29.256;2022-10-31T15:24:19;33.4;25;14
74434;PMS7003;62867;52.038;29.256;2022-10-31T15:28:59;36.4;27.4;16.2
74434;PMS7003;62867;52.038;29.256;2022-10-31T15:33:57;36.5;29;17.5
74434;PMS7003;62867;52.038;29.256;2022-10-31T15:38:55;38.4;29.4;16
74434;PMS7003;62867;52.038;29.256;2022-10-31T15:44:11;37.2;28.4;18.4
74434;PMS7003;62867;52.038;29.256;2022-10-31T15:48:53;49.8;37.4;22.8
74434;PMS7003;62867;52.038;29.256;2022-10-31T15:54:01;52.8;40.4;26
74434;PMS7003;62867;52.038;29.256;2022-10-31T15:59:01;45;35.4;23.6
74434;PMS7003;62867;52.038;29.256;2022-10-31T16:04:20;39.4;31;19.2
74434;PMS7003;62867;52.038;29.256;2022-10-31T16:08:53;35.2;26.6;17.4
74434;PMS7003;62867;52.038;29.256;2022-10-31T16:13:54;40;32.2;20.2
74434;PMS7003;62867;52.038;29.256;2022-10-31T16:18:53;46.4;34.8;21.2
74434;PMS7003;62867;52.038;29.256;2022-10-31T16:23:55;30;27;16.8
74434;PMS7003;62867;52.038;29.256;2022-10-31T16:29:01;26.4;21;13.6
74434;PMS7003;62867;52.038;29.256;2022-10-31T16:34:17;25.8;20.5;13.3
74434;PMS7003;62867;52.038;29.256;2022-10-31T16:39:27;24.4;21.2;14.4
74434;PMS7003;62867;52.038;29.256;2022-10-31T16:44:01;21.6;18.6;12.8
74434;PMS7003;62867;52.038;29.256;2022-10-31T16:49:15;20.2;16.6;11
74434;PMS7003;62867;52.038;29.256;2022-10-31T16:53:53;25.2;19.4;12.4
74434;PMS7003;62867;52.038;29.256;2022-10-31T16:58:53;35.6;30.8;18.8
74434;PMS7003;62867;52.038;29.256;2022-10-31T17:03:53;50.2;39;23.2
74434;PMS7003;62867;52.038;29.256;2022-10-31T17:08:53;59.6;45;28
74434;PMS7003;62867;52.038;29.256;2022-10-31T17:14:13;78.4;59.6;36.8
74434;PMS7003;62867;52.038;29.256;2022-10-31T17:19:03;70.4;52.6;31.4
74434;PMS7003;62867;52.038;29.256;2022-10-31T17:24:05;57.8;43.2;27.8
74434;PMS7003;62867;52.038;29.256;2022-10-31T17:29:13;45.8;35;21.4
74434;PMS7003;62867;52.038;29.256;2022-10-31T17:33:53;33.6;28.4;17.8
74434;PMS7003;62867;52.038;29.256;2022-10-31T17:38:53;36.3;27.5;17
74434;PMS7003;62867;52.038;29.256;2022-10-31T17:43:53;29;24.2;14.4
74434;PMS7003;62867;52.038;29.256;2022-10-31T17:48:53;25.6;21;13.4
74434;PMS7003;62867;52.038;29.256;2022-10-31T17:53:53;29.6;23.6;14.8
74434;PMS7003;62867;52.038;29.256;2022-10-31T17:59:01;32;24;15
74434;PMS7003;62867;52.038;29.256;2022-10-31T18:04:15;26.8;20.6;13.2
74434;PMS7003;62867;52.038;29.256;2022-10-31T18:08:53;17;12.8;8.6
74434;PMS7003;62867;52.038;29.256;2022-10-31T18:14:05;17.4;14.4;8.4
74434;PMS7003;62867;52.038;29.256;2022-10-31T18:18:54;20.3;16;8.3
74434;PMS7003;62867;52.038;29.256;2022-10-31T18:23:53;17.5;14.8;8.3
74434;PMS7003;62867;52.038;29.256;2022-10-31T18:29:01;25.6;20.8;12.4
74434;PMS7003;62867;52.038;29.256;2022-10-31T18:33:53;37;28.2;16.2
74434;PMS7003;62867;52.038;29.256;2022-10-31T18:38:54;26.2;19.8;12
74434;PMS7003;62867;52.038;29.256;2022-10-31T18:44:05;19.4;15.4;9.6
74434;PMS7003;62867;52.038;29.256;2022-10-31T18:49:15;18.8;13.6;8.6
74434;PMS7003;62867;52.038;29.256;2022-10-31T18:54:13;17.2;13.6;8.2
74434;PMS7003;62867;52.038;29.256;2022-10-31T18:58:53;19;14.8;9
74434;PMS7003;62867;52.038;29.256;2022-10-31T19:04:17;20.3;15.3;9.5
74434;PMS7003;62867;52.038;29.256;2022-10-31T19:09:06;19.6;15.6;8.6
74434;PMS7003;62867;52.038;29.256;2022-10-31T19:14:01;13.4;10.8;6.8
74434;PMS7003;62867;52.038;29.256;2022-10-31T19:18:53;15.2;10.8;6
74434;PMS7003;62867;52.038;29.256;2022-10-31T19:23:53;16.8;12.4;8.4
74434;PMS7003;62867;52.038;29.256;2022-10-31T19:29:06;16.4;12.8;8.4
74434;PMS7003;62867;52.038;29.256;2022-10-31T19:34:01;14.3;11;6.5
74434;PMS7003;62867;52.038;29.256;2022-10-31T19:39:27;13.8;9.8;5.2
74434;PMS7003;62867;52.038;29.256;2022-10-31T19:43:53;11.2;7.8;4
74434;PMS7003;62867;52.038;29.256;2022-10-31T19:49:01;11.4;8.2;3.8
74434;PMS7003;62867;52.038;29.256;2022-10-31T19:54:01;7.6;5.6;3
74434;PMS7003;62867;52.038;29.256;2022-10-31T19:58:53;7.2;5.8;2.8
74434;PMS7003;62867;52.038;29.256;2022-10-31T20:04:01;7.8;6.2;3.4
74434;PMS7003;62867;52.038;29.256;2022-10-31T20:09:13;9.2;6.2;3.4
74434;PMS7003;62867;52.038;29.256;2022-10-31T20:14:05;8.2;6.4;3.4
74434;PMS7003;62867;52.038;29.256;2022-10-31T20:18:53;9.2;6.4;3.4
74434;PMS7003;62867;52.038;29.256;2022-10-31T20:23:54;8;6.2;3.4
74434;PMS7003;62867;52.038;29.256;2022-10-31T20:29:12;8.2;6.6;3.4
74434;PMS7003;62867;52.038;29.256;2022-10-31T20:33:53;8;5.5;3
74434;PMS7003;62867;52.038;29.256;2022-10-31T20:38:53;9;6;3.2
74434;PMS7003;62867;52.038;29.256;2022-10-31T20:43:53;8.6;5.6;3.2
74434;PMS7003;62867;52.038;29.256;2022-10-31T20:49:13;7.6;5;2.6
74434;PMS7003;62867;52.038;29.256;2022-10-31T20:54:03;7;5.6;3.2
74434;PMS7003;62867;52.038;29.256;2022-10-31T20:58:53;7.6;4.4;2.8
74434;PMS7003;62867;52.038;29.256;2022-10-31T21:04:03;8.8;5.6;2.6
74434;PMS7003;62867;52.038;29.256;2022-10-31T21:08:53;5.8;4.2;2.6
74434;PMS7003;62867;52.038;29.256;2022-10-31T21:13:53;9;7.2;3.6
74434;PMS7003;62867;52.038;29.256;2022-10-31T21:19:05;9.2;6.2;3
74434;PMS7003;62867;52.038;29.256;2022-10-31T21:24:16;7.8;6.2;3.4
74434;PMS7003;62867;52.038;29.256;2022-10-31T21:28:54;9;6;2.4
74434;PMS7003;62867;52.038;29.256;2022-10-31T21:33:53;7.6;6.2;3
74434;PMS7003;62867;52.038;29.256;2022-10-31T21:39:06;8.8;5.3;3.3
74434;PMS7003;62867;52.038;29.256;2022-10-31T21:44:03;7.4;4.8;2.8
74434;PMS7003;62867;52.038;29.256;2022-10-31T21:48:53;9.6;6.4;3.4
74434;PMS7003;62867;52.038;29.256;2022-10-31T21:53:53;7.6;6;3.6
74434;PMS7003;62867;52.038;29.256;2022-10-31T21:58:49;9.8;6.8;3.6
74434;PMS7003;62867;52.038;29.256;2022-10-31T22:04:13;9.6;6.4;3.2
74434;PMS7003;62867;52.038;29.256;2022-10-31T22:08:58;9.4;6.6;3.4
74434;PMS7003;62867;52.038;29.256;2022-10-31T22:13:49;9.2;6;3.4
74434;PMS7003;62867;52.038;29.256;2022-10-31T22:18:58;7.8;6;3
74434;PMS7003;62867;52.038;29.256;2022-10-31T22:23:49;8.8;6.4;3.4
74434;PMS7003;62867;52.038;29.256;2022-10-31T22:28:50;10.2;6.6;3.6
74434;PMS7003;62867;52.038;29.256;2022-10-31T22:34:35;9.6;6.8;4.2
74434;PMS7003;62867;52.038;29.256;2022-10-31T22:38:49;10;7.5;4.3
74434;PMS7003;62867;52.038;29.256;2022-10-31T22:43:49;10.4;7;4.2
74434;PMS7003;62867;52.038;29.256;2022-10-31T22:49:12;13;9;4.6
74434;PMS7003;62867;52.038;29.256;2022-10-31T22:54:01;11.6;7.6;3.6
74434;PMS7003;62867;52.038;29.256;2022-10-31T22:58:57;10.2;8.2;4
74434;PMS7003;62867;52.038;29.256;2022-10-31T23:03:49;10.4;6.8;4
74434;PMS7003;62867;52.038;29.256;2022-10-31T23:09:07;9.6;7;4
74434;PMS7003;62867;52.038;29.256;2022-10-31T23:13:50;8.6;7;4.2
74434;PMS7003;62867;52.038;29.256;2022-10-31T23:18:57;8.8;6.2;3
74434;PMS7003;62867;52.038;29.256;2022-10-31T23:23:57;9.8;6.4;3.4
74434;PMS7003;62867;52.038;29.256;2022-10-31T23:28:49;9.2;7.6;4
74434;PMS7003;62867;52.038;29.256;2022-10-31T23:33:49;8.4;7.6;3.6
74434;PMS7003;62867;52.038;29.256;2022-10-31T23:38:59;7.3;7;3.8
74434;PMS7003;62867;52.038;29.256;2022-10-31T23:43:49;8.8;5.6;3
74434;PMS7003;62867;52.038;29.256;2022-10-31T23:48:49;8;5.6;3.2
74434;PMS7003;62867;52.038;29.256;2022-10-31T23:53:57;9.2;6.8;3.4
74434;PMS7003;62867;52.038;29.256;2022-10-31T23:58:57;10.6;6.8;3.4
